Terminal Aerodrome Forecast
Issued by NWS Mt. Holly, NJ

Home | Current Version | Previous Version | Text Only | Print | Product List | Glossary On
Versions: 1 2 3 4 5 6 7 8 9 10 11 12 13 14 15
000
FTUS41 KPHI 261745
TAFILG
TAF
KILG 261745Z 2618/2718 16012KT P6SM SCT250
     FM270100 16006KT P6SM BKN250
     FM270400 VRB03KT P6SM BKN100
     FM271400 20006KT P6SM SCT100
     FM271700 19008G16KT P6SM SCT045=

USA.gov is the U.S. government's official web portal to all federal, state and local government web resources and services.